Blasdell, New York
Current Conditions -  °F | °C
As of 6:54 AM on Monday 22 Dec 2014 (Local Time) from KBUF Reporting Station
Broken Clouds Broken Clouds  
Wind Chill: 21°   Ceiling: 24000
Heat Index: 28°   Visibility: 10mi
Dew Point: 22°   Wind: 7mph
Humidity: 78%   Direction: 90°E
Pressure: 30.19"   Gusts: NA
Location:  42.7886°N, 78.827°W
Report Text: KBUF 221154Z 09006KT 10SM FEW016 BKN240 M02/M06 A3019 RMK AO2 SLP234 T10221056 11006 21028 55010
Loading
Personal Weather Stations






























Interactive Weather Map New forecast layout! Learn more

10-Day Weather Forecast

Advertisements
Track Severe Weather on mobile